Time;durP1;ratioP1;P1;durP2;ratioP2;P2;SDS_P1;SDS_P2;PMS_P1;PMS_P2;Temp;Humidity;BMP_temperature;BMP_pressure;BME280_temperature;BME280_humidity;BME280_pressure;Samples;Min_cycle;Max_cycle;Signal;HPM_P1;HPM_P2
2023/04/26 00:00:23;;;;;;;0.55;0.55;;;1.50;1.00;;;;;;5031597;28;20793;-74
2023/04/26 00:02:50;;;;;;;0.57;0.57;;;1.50;99.90;;;;;;5034380;28;20440;-74
2023/04/26 00:05:20;;;;;;;5.22;0.47;;;1.40;99.90;;;;;;5034775;28;21049;-74
2023/04/26 00:07:49;;;;;;;0.50;0.50;;;1.40;99.90;;;;;;5034283;28;20430;-74
2023/04/26 00:10:16;;;;;;;0.20;0.20;;;1.50;99.90;;;;;;5033451;28;20523;-74
2023/04/26 00:12:45;;;;;;;0.32;0.32;;;1.50;1.00;;;;;;5033537;28;20439;-74
2023/04/26 00:15:12;;;;;;;0.90;0.90;;;1.60;99.90;;;;;;5030433;28;20437;-74
2023/04/26 00:17:43;;;;;;;0.43;0.43;;;1.50;99.90;;;;;;5031899;28;20433;-74
2023/04/26 00:20:11;;;;;;;0.47;0.47;;;1.60;99.90;;;;;;5032123;28;20432;-74
2023/04/26 00:22:39;;;;;;;0.70;0.45;;;1.70;99.90;;;;;;5046749;28;20443;-74
2023/04/26 00:25:06;;;;;;;0.60;0.60;;;1.70;99.90;;;;;;5031136;28;20448;-74
2023/04/26 00:27:33;;;;;;;0.50;0.40;;;1.70;99.90;;;;;;5031922;28;20437;-74
2023/04/26 00:30:00;;;;;;;0.37;0.37;;;1.80;99.90;;;;;;5030303;28;20442;-74
2023/04/26 00:32:30;;;;;;;0.30;0.30;;;1.80;1.00;;;;;;5031650;28;20937;-75
2023/04/26 00:34:58;;;;;;;0.35;0.35;;;1.80;1.00;;;;;;5032038;28;20444;-74
2023/04/26 00:37:49;;;;;;;0.40;0.40;;;1.80;99.90;;;;;;5026172;28;20520;-74
2023/04/26 00:40:19;;;;;;;1.00;0.80;;;1.70;99.90;;;;;;5028397;28;20429;-74
2023/04/26 00:42:47;;;;;;;0.43;0.43;;;1.70;99.90;;;;;;5035257;28;20933;-75
2023/04/26 00:45:14;;;;;;;0.30;0.30;;;1.80;1.00;;;;;;5034986;28;20445;-74
2023/04/26 00:47:44;;;;;;;0.30;0.30;;;1.90;1.00;;;;;;5032723;28;20425;-74
2023/04/26 00:50:15;;;;;;;0.50;0.50;;;2.00;1.00;;;;;;5034111;28;20520;-74
2023/04/26 00:52:44;;;;;;;1.00;0.90;;;2.00;99.90;;;;;;5027394;28;20429;-74
2023/04/26 00:55:15;;;;;;;0.30;0.30;;;2.00;99.90;;;;;;5032452;28;20440;-74
2023/04/26 00:57:44;;;;;;;0.90;0.43;;;2.00;1.00;;;;;;5033071;28;20478;-74
2023/04/26 01:00:11;;;;;;;0.43;0.43;;;2.00;99.90;;;;;;5032025;28;20438;-74
2023/04/26 01:02:38;;;;;;;0.60;0.60;;;1.90;99.90;;;;;;5032067;28;20483;-74
2023/04/26 01:05:05;;;;;;;0.20;0.20;;;1.80;99.90;;;;;;5033721;28;20479;-74
2023/04/26 01:07:32;;;;;;;0.35;0.35;;;1.80;99.90;;;;;;5031194;28;20441;-74
2023/04/26 01:09:59;;;;;;;1.10;0.75;;;1.80;99.90;;;;;;5031896;28;20479;-74
2023/04/26 01:12:27;;;;;;;0.60;0.60;;;1.70;99.90;;;;;;5033548;28;20437;-74
2023/04/26 01:14:54;;;;;;;1.13;0.45;;;1.60;1.00;;;;;;5033116;28;20442;-74
2023/04/26 01:17:21;;;;;;;0.30;0.30;;;1.60;1.00;;;;;;5034013;28;20437;-74
2023/04/26 01:19:48;;;;;;;0.40;0.40;;;1.50;1.00;;;;;;5030807;28;20433;-74
2023/04/26 01:22:15;;;;;;;0.55;0.55;;;1.40;1.00;;;;;;5032517;28;20985;-74
2023/04/26 01:24:49;;;;;;;0.70;0.70;;;1.30;1.00;;;;;;5031864;28;20440;-74
2023/04/26 01:27:16;;;;;;;1.10;1.00;;;1.30;99.90;;;;;;5031792;28;20434;-74
2023/04/26 01:29:43;;;;;;;2.13;0.57;;;1.30;1.00;;;;;;5032919;28;20441;-74
2023/04/26 01:32:10;;;;;;;0.63;0.63;;;1.20;1.00;;;;;;5031606;28;20432;-74
2023/04/26 01:34:37;;;;;;;0.30;0.30;;;1.00;1.00;;;;;;5031431;28;20461;-74
2023/04/26 01:37:04;;;;;;;0.40;0.40;;;1.00;99.90;;;;;;5032351;28;22503;-74
2023/04/26 01:39:30;;;;;;;0.40;0.40;;;0.90;99.90;;;;;;5031699;28;20437;-74
2023/04/26 01:41:57;;;;;;;1.65;0.65;;;0.90;1.00;;;;;;5039882;28;20421;-74
2023/04/26 01:44:24;;;;;;;0.50;0.50;;;0.80;55.60;;;;;;5045295;28;20433;-74
2023/04/26 01:46:50;;;;;;;1.23;0.57;;;0.80;99.90;;;;;;5044202;28;20425;-74
2023/04/26 01:49:17;;;;;;;0.50;0.50;;;0.70;1.00;;;;;;5048224;28;20441;-74
2023/04/26 01:51:44;;;;;;;0.32;0.32;;;0.70;99.90;;;;;;5041676;28;20428;-74
2023/04/26 01:54:11;;;;;;;1.33;0.63;;;0.60;1.00;;;;;;5054942;28;20433;-74
2023/04/26 01:56:37;;;;;;;0.50;0.50;;;0.60;1.00;;;;;;5038461;28;20433;-74
2023/04/26 01:59:04;;;;;;;0.30;0.30;;;0.50;99.90;;;;;;5032215;28;21222;-74
2023/04/26 02:01:31;;;;;;;0.32;0.32;;;0.30;99.90;;;;;;5031263;28;20445;-74
2023/04/26 02:03:58;;;;;;;0.30;0.30;;;0.00;99.90;;;;;;5031672;28;20436;-74
2023/04/26 02:06:25;;;;;;;0.20;0.20;;;-0.10;99.90;;;;;;5035359;28;20429;-74
2023/04/26 02:08:53;;;;;;;0.43;0.28;;;-0.30;99.90;;;;;;5036043;28;20533;-74
2023/04/26 02:11:20;;;;;;;1.00;0.90;;;-0.30;99.90;;;;;;5034013;28;20525;-74
2023/04/26 02:13:46;;;;;;;0.32;0.32;;;-0.40;99.90;;;;;;5033428;28;20528;-74
2023/04/26 02:16:15;;;;;;;0.57;0.57;;;-0.50;99.90;;;;;;5034300;28;20440;-74
2023/04/26 02:18:43;;;;;;;0.40;0.40;;;-0.60;1.00;;;;;;5036806;28;20437;-74
2023/04/26 02:21:10;;;;;;;0.50;0.50;;;-0.70;1.00;;;;;;5035493;28;20847;-74
2023/04/26 02:23:37;;;;;;;0.52;0.52;;;-0.80;1.00;;;;;;5036100;28;20437;-74
2023/04/26 02:26:04;;;;;;;0.30;0.30;;;-0.80;1.00;;;;;;5032551;28;20437;-74
2023/04/26 02:28:31;;;;;;;0.75;0.73;;;-0.80;1.00;;;;;;5035780;28;20441;-74
2023/04/26 02:30:58;;;;;;;1.10;0.50;;;-0.80;1.00;;;;;;5034622;28;20446;-74
2023/04/26 02:33:25;;;;;;;0.40;0.30;;;-0.90;1.00;;;;;;5034724;28;20447;-74
2023/04/26 02:35:52;;;;;;;0.70;0.50;;;-1.00;1.00;;;;;;5032756;28;20438;-74
2023/04/26 02:38:18;;;;;;;0.80;0.80;;;-0.90;1.00;;;;;;5035372;28;20441;-74
2023/04/26 02:40:46;;;;;;;0.80;0.40;;;-0.90;1.00;;;;;;5036346;28;20443;-74
2023/04/26 02:43:12;;;;;;;0.15;0.15;;;-0.80;1.00;;;;;;5033115;28;20556;-74
2023/04/26 02:45:41;;;;;;;2.85;0.55;;;-0.80;1.00;;;;;;5034838;28;20433;-74
2023/04/26 02:48:08;;;;;;;3.30;1.05;;;-0.90;1.00;;;;;;5035509;28;20939;-74
2023/04/26 02:50:35;;;;;;;0.50;0.50;;;-1.00;1.00;;;;;;5035856;28;20467;-74
2023/04/26 02:53:02;;;;;;;0.80;0.80;;;-1.00;1.00;;;;;;5036802;28;20425;-74
2023/04/26 02:55:29;;;;;;;0.50;0.50;;;-1.00;1.00;;;;;;5033270;28;20958;-74
2023/04/26 02:57:56;;;;;;;1.00;0.90;;;-1.10;1.00;;;;;;5035927;28;20957;-74
2023/04/26 03:00:23;;;;;;;0.52;0.52;;;-1.10;1.00;;;;;;5034858;28;20433;-74
2023/04/26 03:02:50;;;;;;;0.20;0.20;;;-1.10;1.00;;;;;;5035803;28;20440;-74
2023/04/26 03:05:18;;;;;;;0.90;0.50;;;-1.10;1.00;;;;;;5033634;28;20441;-74
2023/04/26 03:07:45;;;;;;;0.20;0.20;;;-1.10;1.00;;;;;;5032597;28;22346;-74
2023/04/26 03:10:12;;;;;;;1.20;0.30;;;-1.00;1.00;;;;;;5032153;28;20425;-74
2023/04/26 03:12:39;;;;;;;1.20;0.70;;;-0.90;1.00;;;;;;5034935;28;21011;-74
2023/04/26 03:15:06;;;;;;;0.63;0.63;;;-0.90;1.00;;;;;;5029517;28;20431;-74
2023/04/26 03:17:33;;;;;;;0.68;0.68;;;-0.90;1.00;;;;;;5034068;28;20449;-74
2023/04/26 03:20:00;;;;;;;0.30;0.30;;;-0.90;10.00;;;;;;5035508;28;20440;-74
2023/04/26 03:22:28;;;;;;;0.30;0.30;;;-0.90;18.90;;;;;;5033544;28;20425;-74
2023/04/26 03:24:55;;;;;;;0.50;0.50;;;-0.90;23.50;;;;;;5032263;28;20488;-74
2023/04/26 03:27:22;;;;;;;0.45;0.45;;;-0.90;31.30;;;;;;5032308;28;20937;-74
2023/04/26 03:29:49;;;;;;;0.53;0.53;;;-0.90;46.30;;;;;;5033290;28;20839;-74
2023/04/26 03:32:16;;;;;;;0.55;0.55;;;-0.90;55.90;;;;;;5035332;28;21012;-75
2023/04/26 03:34:43;;;;;;;1.17;1.10;;;-1.00;58.70;;;;;;5029208;28;20517;-74
2023/04/26 03:37:10;;;;;;;0.70;0.70;;;-1.10;58.90;;;;;;5034923;28;20440;-74
2023/04/26 03:39:37;;;;;;;0.40;0.38;;;-1.20;65.60;;;;;;5033358;28;20437;-75
2023/04/26 03:42:03;;;;;;;0.38;0.38;;;-1.30;70.00;;;;;;5034109;28;20426;-74
2023/04/26 03:44:30;;;;;;;1.27;0.45;;;-1.40;79.10;;;;;;5031995;28;20836;-74
2023/04/26 03:46:57;;;;;;;0.57;0.57;;;-1.40;85.30;;;;;;5034129;28;20951;-74
2023/04/26 03:49:23;;;;;;;0.73;0.40;;;-1.40;89.40;;;;;;5035323;28;20448;-75
2023/04/26 03:51:50;;;;;;;0.65;0.65;;;-1.40;92.80;;;;;;5032681;28;20798;-75
2023/04/26 03:54:19;;;;;;;0.57;0.57;;;-1.50;97.10;;;;;;5032575;28;20444;-75
2023/04/26 03:56:46;;;;;;;2.90;0.80;;;-1.40;99.90;;;;;;5029143;28;20947;-75
2023/04/26 03:59:13;;;;;;;1.00;0.60;;;-1.40;99.90;;;;;;5032144;28;20441;-75
2023/04/26 04:01:40;;;;;;;0.35;0.35;;;-1.50;99.90;;;;;;5027070;28;20968;-75
2023/04/26 04:04:08;;;;;;;0.82;0.82;;;-1.40;99.90;;;;;;5027410;28;20770;-75
2023/04/26 04:06:37;;;;;;;1.30;0.70;;;-1.40;99.90;;;;;;5026486;28;20433;-75
2023/04/26 04:09:06;;;;;;;0.25;0.25;;;-1.40;99.90;;;;;;5028589;28;20433;-75
2023/04/26 04:11:33;;;;;;;0.40;0.40;;;-1.30;99.90;;;;;;5027849;28;20432;-75
2023/04/26 04:14:01;;;;;;;0.82;0.82;;;-1.40;99.90;;;;;;5026926;28;21040;-75
2023/04/26 04:16:28;;;;;;;1.10;0.40;;;-1.40;99.90;;;;;;5036204;28;20433;-76
2023/04/26 04:18:55;;;;;;;1.20;0.20;;;-1.30;99.90;;;;;;5029814;28;20410;-76
2023/04/26 04:21:22;;;;;;;0.40;0.40;;;-1.30;99.90;;;;;;5029936;28;20442;-73
2023/04/26 04:23:49;;;;;;;0.38;0.38;;;-1.30;99.90;;;;;;5027348;28;20961;-74
2023/04/26 04:26:16;;;;;;;0.50;0.45;;;-1.30;99.90;;;;;;5025413;28;20460;-74
2023/04/26 04:28:44;;;;;;;0.50;0.50;;;-1.30;99.90;;;;;;5027945;28;21595;-74
2023/04/26 04:31:11;;;;;;;0.60;0.60;;;-1.40;99.90;;;;;;5029378;28;20445;-74
2023/04/26 04:33:38;;;;;;;0.60;0.60;;;-1.40;99.90;;;;;;5026390;28;20429;-74
2023/04/26 04:36:05;;;;;;;1.05;0.70;;;-1.50;99.90;;;;;;5027333;28;20435;-74
2023/04/26 04:38:33;;;;;;;0.73;0.73;;;-1.40;99.90;;;;;;5028484;28;20441;-74
2023/04/26 04:41:00;;;;;;;0.80;0.30;;;-1.30;99.90;;;;;;5025795;28;20434;-74
2023/04/26 04:43:26;;;;;;;0.90;0.70;;;-1.20;99.90;;;;;;5028605;28;20469;-75
2023/04/26 04:45:54;;;;;;;4.20;0.80;;;-1.10;99.90;;;;;;5026984;28;20432;-75
2023/04/26 04:48:21;;;;;;;0.20;0.20;;;-1.00;99.90;;;;;;5029133;28;21153;-74
2023/04/26 04:50:51;;;;;;;1.27;0.50;;;-1.00;99.90;;;;;;5027638;28;20942;-74
2023/04/26 04:53:18;;;;;;;0.25;0.25;;;-1.00;99.90;;;;;;5029254;28;20458;-74
2023/04/26 04:55:45;;;;;;;0.35;0.17;;;-0.80;99.90;;;;;;5032690;28;20520;-75
2023/04/26 04:58:15;;;;;;;1.60;0.30;;;-0.60;99.90;;;;;;5035972;28;20432;-74
2023/04/26 05:00:42;;;;;;;0.47;0.47;;;-0.50;99.90;;;;;;5031680;28;20442;-75
2023/04/26 05:03:09;;;;;;;1.40;0.70;;;-0.40;99.90;;;;;;5034082;28;20460;-74
2023/04/26 05:05:36;;;;;;;1.10;0.85;;;-0.40;99.90;;;;;;5031451;28;20523;-74
2023/04/26 05:08:06;;;;;;;0.50;0.50;;;-0.30;99.90;;;;;;5030761;28;20560;-75
2023/04/26 05:10:33;;;;;;;2.15;0.98;;;-0.20;99.90;;;;;;5035932;28;22588;-75
2023/04/26 05:13:00;;;;;;;0.70;0.70;;;-0.10;99.90;;;;;;5032450;28;20922;-75
2023/04/26 05:15:29;;;;;;;0.77;0.77;;;-0.10;99.90;;;;;;5032528;28;21931;-75
2023/04/26 05:17:56;;;;;;;0.47;0.47;;;0.00;99.90;;;;;;5031773;28;20433;-75
2023/04/26 05:20:23;;;;;;;0.55;0.55;;;0.20;99.90;;;;;;5030712;28;20516;-75
2023/04/26 05:22:50;;;;;;;1.35;0.60;;;0.40;99.90;;;;;;5033827;28;20425;-75
2023/04/26 05:25:17;;;;;;;5.60;0.68;;;0.50;99.90;;;;;;5030340;28;20506;-75
2023/04/26 05:27:45;;;;;;;0.70;0.70;;;0.60;99.90;;;;;;5029584;28;20430;-75
2023/04/26 05:30:12;;;;;;;0.77;0.68;;;0.80;99.90;;;;;;5029504;28;20638;-75
2023/04/26 05:32:40;;;;;;;5.13;0.63;;;1.00;99.90;;;;;;5029418;28;20429;-75
2023/04/26 05:35:07;;;;;;;0.40;0.40;;;1.30;99.90;;;;;;5027582;28;20532;-75
2023/04/26 05:37:35;;;;;;;1.35;0.50;;;1.50;99.90;;;;;;5026033;28;20439;-75
2023/04/26 05:40:03;;;;;;;3.70;0.30;;;1.80;99.90;;;;;;5025708;28;20436;-75
2023/04/26 05:42:30;;;;;;;0.50;0.40;;;1.90;99.90;;;;;;5033405;28;20433;-75
2023/04/26 05:44:57;;;;;;;1.08;0.70;;;2.40;99.90;;;;;;5029730;28;20437;-76
2023/04/26 05:47:25;;;;;;;0.80;0.80;;;3.20;99.90;;;;;;5027712;28;20433;-75
2023/04/26 05:49:52;;;;;;;1.20;1.10;;;4.20;99.90;;;;;;5029052;28;20942;-74
2023/04/26 05:52:18;;;;;;;0.77;0.77;;;5.40;99.90;;;;;;5031396;28;20457;-74
2023/04/26 05:54:46;;;;;;;1.00;0.90;;;6.40;99.90;;;;;;5028661;28;20796;-75
2023/04/26 05:57:13;;;;;;;1.42;1.33;;;7.10;99.90;;;;;;5027357;28;20472;-75
2023/04/26 05:59:43;;;;;;;0.77;0.77;;;7.70;99.90;;;;;;5030749;28;20564;-75
2023/04/26 06:02:10;;;;;;;2.60;1.40;;;8.50;99.90;;;;;;5027618;28;20437;-74
2023/04/26 06:04:37;;;;;;;0.70;0.70;;;9.10;99.90;;;;;;5027447;28;20438;-74
2023/04/26 06:07:06;;;;;;;0.77;0.77;;;9.40;99.90;;;;;;5029002;28;20471;-75
2023/04/26 06:09:33;;;;;;;3.30;0.73;;;9.70;99.90;;;;;;5028503;28;21166;-74
2023/04/26 06:12:01;;;;;;;0.70;0.70;;;10.00;99.90;;;;;;5028914;28;20425;-75
2023/04/26 06:14:27;;;;;;;1.10;0.80;;;10.10;99.90;;;;;;5026820;28;21082;-75
2023/04/26 06:16:56;;;;;;;1.05;1.05;;;10.30;99.90;;;;;;5028515;28;20435;-75
2023/04/26 06:19:24;;;;;;;2.78;0.98;;;11.00;99.90;;;;;;5028898;28;20434;-74
2023/04/26 06:21:54;;;;;;;0.80;0.80;;;11.70;99.90;;;;;;5030553;28;20532;-74
2023/04/26 06:24:21;;;;;;;0.80;0.70;;;12.30;99.90;;;;;;5029716;28;20952;-74
2023/04/26 06:26:50;;;;;;;1.67;1.00;;;12.60;99.90;;;;;;5029182;28;20447;-74
2023/04/26 06:29:17;;;;;;;1.30;0.93;;;12.90;99.90;;;;;;5027568;28;20441;-75
2023/04/26 06:31:44;;;;;;;0.90;0.90;;;12.90;99.90;;;;;;5019880;28;20428;-75
2023/04/26 06:34:11;;;;;;;0.90;0.90;;;12.10;99.90;;;;;;5021787;28;20441;-74
2023/04/26 06:36:37;;;;;;;1.30;1.10;;;11.50;99.90;;;;;;5024971;28;20823;-72
2023/04/26 06:39:06;;;;;;;0.80;0.70;;;11.30;99.90;;;;;;5022615;28;21033;-72
2023/04/26 06:41:33;;;;;;;2.40;0.88;;;11.60;99.90;;;;;;5022877;28;22906;-72
2023/04/26 06:44:00;;;;;;;0.50;0.50;;;11.80;99.90;;;;;;5024836;28;21632;-72
2023/04/26 06:46:30;;;;;;;1.20;0.70;;;11.70;99.90;;;;;;5024618;28;20463;-72
2023/04/26 06:48:57;;;;;;;1.88;0.88;;;11.90;99.90;;;;;;5025497;28;20513;-72
2023/04/26 06:51:23;;;;;;;4.90;1.50;;;11.80;99.90;;;;;;5030873;28;20504;-72
2023/04/26 06:53:51;;;;;;;1.40;1.30;;;12.20;99.90;;;;;;5025261;28;20437;-72
2023/04/26 06:56:18;;;;;;;0.70;0.70;;;12.50;99.90;;;;;;5029043;28;20563;-72
2023/04/26 06:59:05;;;;;;;1.23;1.17;;;12.90;99.90;;;;;;5026098;28;20424;-72
2023/04/26 07:01:33;;;;;;;1.00;1.00;;;13.60;99.90;;;;;;5027582;28;20564;-74
2023/04/26 07:04:03;;;;;;;1.23;1.13;;;14.00;99.90;;;;;;5023142;28;20467;-75
2023/04/26 07:06:30;;;;;;;0.90;0.90;;;14.50;99.90;;;;;;5027207;28;21168;-75
2023/04/26 07:09:01;;;;;;;1.80;0.90;;;14.60;99.90;;;;;;5025989;28;20949;-75
2023/04/26 07:11:28;;;;;;;1.02;1.02;;;14.60;99.90;;;;;;5028020;28;20444;-74
2023/04/26 07:13:55;;;;;;;0.60;0.60;;;14.20;99.90;;;;;;5029329;28;20499;-74
2023/04/26 07:16:23;;;;;;;1.00;0.95;;;13.40;99.90;;;;;;5030981;28;20431;-74
2023/04/26 07:18:51;;;;;;;1.55;1.00;;;12.80;99.90;;;;;;5033652;28;20518;-75
2023/04/26 07:21:18;;;;;;;0.90;0.90;;;12.50;99.90;;;;;;5032014;28;20433;-74
2023/04/26 07:23:45;;;;;;;1.33;0.88;;;12.50;99.90;;;;;;5028238;28;20429;-74
2023/04/26 07:26:13;;;;;;;2.15;0.82;;;12.40;99.90;;;;;;5031212;28;20433;-74
2023/04/26 07:28:39;;;;;;;1.55;1.02;;;12.60;99.90;;;;;;5027542;28;20962;-74
2023/04/26 07:31:06;;;;;;;0.60;0.60;;;12.90;99.90;;;;;;5029855;28;20520;-75
2023/04/26 07:33:35;;;;;;;1.52;0.70;;;13.10;99.90;;;;;;5030762;28;20441;-76
2023/04/26 07:36:02;;;;;;;2.20;0.80;;;13.30;99.90;;;;;;5032681;28;21126;-76
2023/04/26 07:38:29;;;;;;;0.60;0.60;;;13.00;99.90;;;;;;5029995;28;20444;-75
2023/04/26 07:40:57;;;;;;;1.77;0.60;;;13.00;99.90;;;;;;5032269;28;20983;-75
2023/04/26 07:43:24;;;;;;;0.73;0.73;;;12.40;99.90;;;;;;5032347;28;20437;-75
2023/04/26 07:45:51;;;;;;;1.50;0.50;;;13.00;99.90;;;;;;5030545;28;20438;-75
2023/04/26 07:48:21;;;;;;;0.80;0.80;;;13.40;99.90;;;;;;5032721;28;20781;-76
2023/04/26 07:50:48;;;;;;;3.20;0.77;;;13.40;99.90;;;;;;5032766;28;20520;-75
2023/04/26 07:53:15;;;;;;;3.17;0.60;;;13.40;99.90;;;;;;5034120;28;20431;-73
2023/04/26 07:55:42;;;;;;;0.73;0.57;;;13.60;99.90;;;;;;5028559;28;21574;-75
2023/04/26 07:58:13;;;;;;;0.70;0.70;;;14.00;99.90;;;;;;5036482;28;21237;-75
2023/04/26 08:00:40;;;;;;;1.35;0.70;;;14.10;99.90;;;;;;5031456;28;20438;-75
2023/04/26 08:03:07;;;;;;;1.60;0.60;;;14.00;99.90;;;;;;5034896;28;20433;-75
2023/04/26 08:05:34;;;;;;;0.70;0.70;;;13.60;99.90;;;;;;5031302;28;20437;-74
2023/04/26 08:08:01;;;;;;;0.77;0.77;;;13.10;99.90;;;;;;5032982;28;20442;-74
2023/04/26 08:10:28;;;;;;;0.45;0.45;;;13.00;99.90;;;;;;5033960;28;20807;-75
2023/04/26 08:12:56;;;;;;;1.50;0.93;;;12.80;99.90;;;;;;5028344;28;20443;-74
2023/04/26 08:15:23;;;;;;;0.70;0.70;;;12.90;99.90;;;;;;5030477;28;20893;-74
2023/04/26 08:17:52;;;;;;;0.52;0.52;;;12.80;99.90;;;;;;5028996;28;20440;-73
2023/04/26 08:20:19;;;;;;;1.45;0.88;;;12.70;99.90;;;;;;5029770;28;20437;-75
2023/04/26 08:22:46;;;;;;;2.22;1.00;;;13.30;99.90;;;;;;5026624;28;20446;-75
2023/04/26 08:25:14;;;;;;;0.67;0.67;;;13.10;99.60;;;;;;5025746;28;20526;-75
2023/04/26 08:27:43;;;;;;;2.20;0.77;;;13.50;99.30;;;;;;5028747;28;20435;-75
2023/04/26 08:30:10;;;;;;;0.77;0.77;;;14.10;99.60;;;;;;5027517;28;20488;-75
2023/04/26 08:32:37;;;;;;;0.70;0.70;;;14.70;99.90;;;;;;5030423;28;20960;-75
2023/04/26 08:35:04;;;;;;;0.77;0.77;;;14.20;98.60;;;;;;5029505;28;20433;-75
2023/04/26 08:37:37;;;;;;;0.80;0.80;;;13.90;98.30;;;;;;5030603;28;20433;-75
2023/04/26 08:40:09;;;;;;;2.45;1.10;;;14.00;98.60;;;;;;5032492;28;20630;-75
2023/04/26 08:42:43;;;;;;;1.35;0.57;;;14.60;98.80;;;;;;5030887;28;20472;-76
2023/04/26 08:45:10;;;;;;;1.43;0.93;;;15.90;99.80;;;;;;5030599;28;20464;-76
2023/04/26 08:47:48;;;;;;;1.00;0.70;;;16.70;98.20;;;;;;5031926;28;20930;-75
2023/04/26 08:50:18;;;;;;;8.50;0.73;;;16.70;97.40;;;;;;5032216;28;20435;-75
2023/04/26 08:52:47;;;;;;;1.90;1.00;;;16.80;96.90;;;;;;5030176;28;20835;-75
2023/04/26 08:55:15;;;;;;;2.53;1.48;;;16.00;95.80;;;;;;5029017;28;20425;-75
2023/04/26 08:57:45;;;;;;;1.48;0.50;;;16.30;96.20;;;;;;5030366;28;20935;-76
2023/04/26 09:00:13;;;;;;;0.70;0.60;;;17.00;96.40;;;;;;5032316;28;20834;-75
2023/04/26 09:02:41;;;;;;;0.63;0.63;;;16.40;95.00;;;;;;5032230;28;20437;-76
2023/04/26 09:05:09;;;;;;;0.85;0.80;;;15.60;94.80;;;;;;5029926;28;20434;-76
2023/04/26 09:07:44;;;;;;;1.80;0.70;;;14.80;95.10;;;;;;5030702;28;20804;-75
2023/04/26 09:10:21;;;;;;;1.42;0.73;;;15.30;96.10;;;;;;5031329;28;20441;-75
2023/04/26 09:12:54;;;;;;;0.52;0.52;;;14.90;95.30;;;;;;5030114;28;20421;-75
2023/04/26 09:15:23;;;;;;;4.07;0.95;;;15.10;95.40;;;;;;5026841;28;20547;-76
2023/04/26 09:17:52;;;;;;;5.65;0.68;;;15.30;96.40;;;;;;5030127;28;20433;-76
2023/04/26 09:20:29;;;;;;;1.60;0.70;;;15.50;95.40;;;;;;5031651;28;20433;-75
2023/04/26 09:23:07;;;;;;;0.60;0.60;;;15.10;94.80;;;;;;5023852;28;20788;-75
2023/04/26 09:25:34;;;;;;;3.08;0.93;;;14.60;94.30;;;;;;5031768;28;20527;-76
2023/04/26 09:28:02;;;;;;;2.10;0.70;;;15.30;95.40;;;;;;5032688;28;20472;-76
2023/04/26 09:30:30;;;;;;;2.50;0.70;;;16.00;95.80;;;;;;5033484;28;20421;-76
2023/04/26 09:33:05;;;;;;;3.53;0.87;;;17.00;96.00;;;;;;5032375;28;20432;-76
2023/04/26 09:35:39;;;;;;;1.02;0.70;;;17.10;94.80;;;;;;5030185;28;20427;-76
2023/04/26 09:38:08;;;;;;;1.20;0.70;;;17.50;94.80;;;;;;5031709;28;20437;-76
2023/04/26 09:40:46;;;;;;;1.10;0.83;;;16.90;93.60;;;;;;5028361;28;21301;-76
2023/04/26 09:43:18;;;;;;;5.13;0.75;;;16.50;93.10;;;;;;5030768;28;20447;-75
2023/04/26 09:45:55;;;;;;;0.60;0.60;;;16.50;94.00;;;;;;5034885;28;20425;-75
2023/04/26 09:48:30;;;;;;;0.97;0.80;;;17.00;93.60;;;;;;5029594;28;20439;-76
2023/04/26 09:51:03;;;;;;;0.80;0.70;;;17.40;93.50;;;;;;5032693;28;20425;-76
2023/04/26 09:53:33;;;;;;;0.60;0.60;;;17.20;92.40;;;;;;5032241;28;20432;-76
2023/04/26 09:56:17;;;;;;;2.15;0.82;;;17.30;92.70;;;;;;5033742;28;20425;-76
2023/04/26 09:58:56;;;;;;;1.60;0.57;;;16.90;91.70;;;;;;5034179;28;20438;-76
2023/04/26 10:01:24;;;;;;;3.00;0.47;;;16.60;91.20;;;;;;5031071;28;20455;-75
2023/04/26 10:03:51;;;;;;;0.70;0.70;;;16.40;91.00;;;;;;5031752;28;20437;-75
2023/04/26 10:06:18;;;;;;;4.10;0.98;;;16.40;90.90;;;;;;5029705;28;20779;-74
2023/04/26 10:08:45;;;;;;;5.30;0.50;;;16.30;90.60;;;;;;5030755;28;21201;-75
2023/04/26 10:11:12;;;;;;;1.30;0.60;;;16.20;91.30;;;;;;5031954;28;20548;-75
2023/04/26 10:13:43;;;;;;;1.48;0.50;;;16.00;90.90;;;;;;5030434;28;20425;-74
2023/04/26 10:16:10;;;;;;;0.50;0.50;;;15.50;90.60;;;;;;5032168;28;20467;-75
2023/04/26 10:18:38;;;;;;;0.90;0.85;;;15.40;90.40;;;;;;5031555;28;20440;-76
2023/04/26 10:21:21;;;;;;;0.45;0.45;;;15.10;90.60;;;;;;5028448;28;20474;-74
2023/04/26 10:23:49;;;;;;;0.95;0.77;;;15.20;91.40;;;;;;5028292;28;20433;-75
2023/04/26 10:26:52;;;;;;;0.98;0.52;;;15.20;90.80;;;;;;5032645;28;20433;-74
2023/04/26 10:29:20;;;;;;;0.50;0.50;;;16.10;91.90;;;;;;5030605;28;20453;-74
2023/04/26 10:32:03;;;;;;;4.10;0.90;;;15.60;90.50;;;;;;5034980;28;20438;-75
2023/04/26 10:34:33;;;;;;;1.20;0.65;;;15.80;90.80;;;;;;5030923;28;20440;-74
2023/04/26 10:37:08;;;;;;;0.52;0.52;;;16.20;91.40;;;;;;5028636;28;20432;-75
2023/04/26 10:39:35;;;;;;;0.52;0.50;;;16.30;91.10;;;;;;5026734;28;20456;-75
2023/04/26 10:42:23;;;;;;;2.60;0.73;;;16.60;91.00;;;;;;5031105;28;20445;-74
2023/04/26 10:44:57;;;;;;;2.35;0.70;;;15.60;90.50;;;;;;5031019;28;21244;-74
2023/04/26 10:47:35;;;;;;;0.70;0.43;;;16.00;91.20;;;;;;5032743;28;20536;-74
2023/04/26 10:50:10;;;;;;;1.90;0.80;;;15.80;91.60;;;;;;5027692;28;20437;-74
2023/04/26 10:53:02;;;;;;;0.40;0.40;;;15.60;91.00;;;;;;5033152;28;20532;-74
2023/04/26 10:55:42;;;;;;;0.50;0.50;;;15.40;90.60;;;;;;5032693;28;20542;-74
2023/04/26 10:58:27;;;;;;;1.67;0.73;;;15.40;90.20;;;;;;5031137;28;20537;-75
2023/04/26 11:01:07;;;;;;;2.00;0.85;;;16.30;90.90;;;;;;5036324;28;20452;-74
2023/04/26 11:03:39;;;;;;;0.70;0.70;;;16.90;90.00;;;;;;5034039;28;20516;-74
2023/04/26 11:06:08;;;;;;;0.60;0.60;;;17.10;90.10;;;;;;5033449;28;20429;-74
2023/04/26 11:08:42;;;;;;;1.48;1.05;;;17.80;90.50;;;;;;5033968;28;21261;-75
2023/04/26 11:11:12;;;;;;;1.17;0.60;;;17.40;89.00;;;;;;5034113;28;20440;-74
2023/04/26 11:13:42;;;;;;;1.02;0.68;;;17.50;89.60;;;;;;5031623;28;20429;-75
2023/04/26 11:16:14;;;;;;;2.45;0.82;;;17.40;88.50;;;;;;5042505;28;20973;-75
2023/04/26 11:18:42;;;;;;;1.60;0.63;;;17.30;89.30;;;;;;5034000;28;20437;-75
2023/04/26 11:21:10;;;;;;;1.77;0.80;;;17.80;88.80;;;;;;5032018;28;20434;-75
2023/04/26 11:23:36;;;;;;;1.13;0.82;;;18.50;90.20;;;;;;5031139;28;20438;-76
2023/04/26 11:26:07;;;;;;;3.35;0.75;;;19.30;87.20;;;;;;5029449;28;20433;-76
2023/04/26 11:28:37;;;;;;;0.98;0.55;;;19.70;85.60;;;;;;5032330;28;20433;-74
2023/04/26 11:31:06;;;;;;;0.73;0.63;;;19.90;86.10;;;;;;5032993;28;20519;-75
2023/04/26 11:33:35;;;;;;;1.05;0.68;;;19.40;85.30;;;;;;5033151;28;20429;-75
2023/04/26 11:36:03;;;;;;;1.50;0.88;;;18.80;84.30;;;;;;5029802;28;20435;-75
2023/04/26 11:38:30;;;;;;;0.60;0.60;;;18.40;83.60;;;;;;5025514;28;20425;-75
2023/04/26 11:40:58;;;;;;;1.27;0.60;;;18.10;83.60;;;;;;5025656;28;20556;-74
2023/04/26 11:43:31;;;;;;;0.70;0.70;;;18.30;83.60;;;;;;5028820;28;21155;-75
2023/04/26 11:46:00;;;;;;;0.68;0.63;;;17.50;83.60;;;;;;5028154;28;20456;-75
2023/04/26 11:48:28;;;;;;;3.40;1.00;;;16.90;83.70;;;;;;5031549;28;20431;-74
2023/04/26 11:50:58;;;;;;;0.80;0.80;;;16.00;83.00;;;;;;5032453;28;20433;-74
2023/04/26 11:53:42;;;;;;;1.05;0.60;;;15.50;83.70;;;;;;5032193;28;20436;-74
2023/04/26 11:56:16;;;;;;;0.53;0.53;;;15.20;83.70;;;;;;5030009;28;20959;-75
2023/04/26 11:58:51;;;;;;;2.20;0.83;;;15.40;86.30;;;;;;5032596;28;20459;-76
2023/04/26 12:01:23;;;;;;;4.40;0.90;;;16.20;87.10;;;;;;5041535;28;20554;-75
2023/04/26 12:03:52;;;;;;;0.98;0.90;;;16.40;86.20;;;;;;5032092;28;20441;-75
2023/04/26 12:06:29;;;;;;;5.43;0.60;;;16.00;86.90;;;;;;5028133;28;20429;-75
2023/04/26 12:08:56;;;;;;;0.60;0.60;;;15.20;86.00;;;;;;5029784;28;20957;-75
2023/04/26 12:11:23;;;;;;;0.52;0.50;;;16.30;88.10;;;;;;5029834;28;20527;-76
2023/04/26 12:13:50;;;;;;;1.90;0.70;;;16.90;87.80;;;;;;5030104;28;20423;-76
2023/04/26 12:16:16;;;;;;;1.33;0.65;;;17.40;87.40;;;;;;5032020;28;20430;-75
2023/04/26 12:18:53;;;;;;;2.10;0.80;;;18.10;87.00;;;;;;5033457;28;20445;-75
2023/04/26 12:21:21;;;;;;;0.65;0.65;;;18.30;87.10;;;;;;5030349;28;20498;-74
2023/04/26 12:23:51;;;;;;;0.98;0.60;;;18.60;86.40;;;;;;5028554;28;20435;-74
2023/04/26 12:26:19;;;;;;;1.10;0.60;;;18.70;86.10;;;;;;5030386;28;20427;-74
2023/04/26 12:28:46;;;;;;;1.80;0.75;;;18.90;82.70;;;;;;5030350;28;20538;-74
2023/04/26 12:31:17;;;;;;;0.57;0.57;;;19.60;83.50;;;;;;5028461;28;20516;-74
2023/04/26 12:33:46;;;;;;;0.47;0.47;;;19.20;83.30;;;;;;5030022;28;20461;-75
2023/04/26 12:36:22;;;;;;;0.50;0.50;;;19.70;83.00;;;;;;5031488;28;20429;-76
2023/04/26 12:38:52;;;;;;;0.43;0.43;;;20.10;81.70;;;;;;5027960;28;20448;-75
2023/04/26 12:41:19;;;;;;;1.43;0.47;;;19.90;78.70;;;;;;5028333;28;20448;-76
2023/04/26 12:43:46;;;;;;;1.98;0.93;;;19.90;81.50;;;;;;5028037;28;21000;-76
2023/04/26 12:46:15;;;;;;;1.50;0.55;;;19.40;81.00;;;;;;5028819;28;20524;-76
2023/04/26 12:48:45;;;;;;;1.50;0.88;;;19.20;81.70;;;;;;5029465;28;20524;-76
2023/04/26 12:51:12;;;;;;;0.40;0.40;;;19.40;81.30;;;;;;5030875;28;20452;-76
2023/04/26 12:53:38;;;;;;;4.30;0.77;;;19.00;80.40;;;;;;5029468;28;21119;-76
2023/04/26 12:56:05;;;;;;;1.90;0.75;;;18.80;80.00;;;;;;5026334;28;20438;-75
2023/04/26 12:58:32;;;;;;;0.80;0.70;;;18.90;81.10;;;;;;5032252;28;20433;-76